createdAt,value
2019-02-27T00:00:43.808Z,85.50
2019-02-27T00:03:11.129Z,85.50
2019-02-27T00:06:01.132Z,84.20
2019-02-27T00:08:30.664Z,83.10
2019-02-27T00:11:01.219Z,82.50
2019-02-27T00:13:31.079Z,81.70
2019-02-27T00:16:00.544Z,80.90
2019-02-27T00:18:29.982Z,81.20
2019-02-27T00:21:00.545Z,80.20
2019-02-27T00:23:31.606Z,80.20
2019-02-27T00:26:01.157Z,80.50
2019-02-27T00:28:31.777Z,80.50
2019-02-27T00:31:02.627Z,80.40
2019-02-27T00:33:32.134Z,80.60
2019-02-27T00:36:01.634Z,80.80
2019-02-27T00:38:32.114Z,80.90
2019-02-27T00:41:02.657Z,81.40
2019-02-27T00:43:32.184Z,81.70
2019-02-27T00:46:01.676Z,83.00
2019-02-27T00:48:31.121Z,83.30
2019-02-27T00:51:01.843Z,83.60
2019-02-27T00:53:32.380Z,83.90
2019-02-27T00:56:01.810Z,84.20
2019-02-27T00:58:32.472Z,84.40
2019-02-27T01:01:01.846Z,84.70
2019-02-27T01:03:32.469Z,85.00
2019-02-27T01:06:02.090Z,85.50
2019-02-27T01:08:31.566Z,85.90
2019-02-27T01:11:02.542Z,86.20
2019-02-27T01:13:32.859Z,86.40
2019-02-27T01:16:03.451Z,86.40
2019-02-27T01:18:34.063Z,86.50
2019-02-27T01:21:03.499Z,87.50
2019-02-27T01:23:32.992Z,86.90
2019-02-27T01:26:02.461Z,87.20
2019-02-27T01:28:32.485Z,87.20
2019-02-27T01:31:01.847Z,87.20
2019-02-27T01:33:37.798Z,87.30
2019-02-27T01:36:04.846Z,87.40
2019-02-27T01:38:37.636Z,87.40
2019-02-27T01:41:06.669Z,87.60
2019-02-27T01:43:39.891Z,87.60
2019-02-27T01:46:10.036Z,87.90
2019-02-27T01:48:42.572Z,88.00
2019-02-27T01:51:10.655Z,88.10
2019-02-27T01:53:40.433Z,88.30
2019-02-27T01:56:10.587Z,88.20
2019-02-27T01:58:44.124Z,88.10
2019-02-27T02:01:12.714Z,88.40
2019-02-27T02:03:47.255Z,88.80
2019-02-27T02:06:14.838Z,89.30
2019-02-27T02:08:48.247Z,89.20
2019-02-27T02:11:17.205Z,89.20
2019-02-27T02:14:13.606Z,89.30
2019-02-27T02:16:51.316Z,89.50
2019-02-27T02:19:55.586Z,90.20
2019-02-27T02:23:16.540Z,90.50
2019-02-27T02:26:32.156Z,91.30
2019-02-27T02:29:36.675Z,92.20
2019-02-27T02:32:28.909Z,92.30
2019-02-27T02:35:17.640Z,92.70
2019-02-27T02:38:42.017Z,93.00
2019-02-27T02:41:46.347Z,93.30
2019-02-27T02:44:30.559Z,93.30
2019-02-27T02:47:39.163Z,94.00
2019-02-27T02:50:54.371Z,93.60
2019-02-27T02:54:00.696Z,93.60
2019-02-27T02:57:13.215Z,93.50
2019-02-27T03:00:11.901Z,94.10
2019-02-27T03:03:06.880Z,93.80
2019-02-27T03:06:26.895Z,94.10
2019-02-27T03:09:40.641Z,94.10
2019-02-27T03:13:06.038Z,94.00
2019-02-27T03:15:48.826Z,94.10
2019-02-27T03:18:52.847Z,94.00
2019-02-27T03:21:45.168Z,94.10
2019-02-27T03:24:49.235Z,94.00
2019-02-27T03:27:47.565Z,94.00
2019-02-27T03:30:41.811Z,94.10
2019-02-27T03:33:43.188Z,94.10
2019-02-27T03:36:50.506Z,94.10
2019-02-27T03:40:11.815Z,94.10
2019-02-27T03:43:28.553Z,94.10
2019-02-27T03:46:45.189Z,94.10
2019-02-27T03:49:54.245Z,94.30
2019-02-27T03:53:19.906Z,94.50
2019-02-27T03:56:48.775Z,94.50
2019-02-27T03:59:25.027Z,94.40
2019-02-27T04:02:22.396Z,94.40
2019-02-27T04:05:46.049Z,94.40
2019-02-27T04:08:44.875Z,94.50
2019-02-27T04:11:12.117Z,94.60
2019-02-27T04:13:41.768Z,94.40
2019-02-27T04:16:11.893Z,94.40
2019-02-27T04:19:04.420Z,94.50
2019-02-27T04:21:31.843Z,94.40
2019-02-27T04:24:01.261Z,94.40
2019-02-27T04:26:30.769Z,94.40
2019-02-27T04:29:04.113Z,94.50
2019-02-27T04:31:31.856Z,94.80
2019-02-27T04:34:01.391Z,94.90
2019-02-27T04:36:30.843Z,94.90
2019-02-27T04:39:02.455Z,94.80
2019-02-27T04:41:32.687Z,94.80
2019-02-27T04:44:06.057Z,94.80
2019-02-27T04:46:35.832Z,94.80
2019-02-27T04:49:05.810Z,94.80
2019-02-27T04:51:36.312Z,94.80
2019-02-27T04:54:07.285Z,94.80
2019-02-27T04:56:37.126Z,94.90
2019-02-27T04:59:07.763Z,95.00
2019-02-27T05:01:37.419Z,95.10
2019-02-27T05:04:07.010Z,95.20
2019-02-27T05:06:37.753Z,95.40
2019-02-27T05:09:07.831Z,95.30
2019-02-27T05:11:37.306Z,95.30
2019-02-27T05:14:06.713Z,95.30
2019-02-27T05:16:37.192Z,95.40
2019-02-27T05:19:07.505Z,95.50
2019-02-27T05:21:37.010Z,95.90
2019-02-27T05:24:07.678Z,95.90
2019-02-27T05:26:38.916Z,96.00
2019-02-27T05:29:08.435Z,96.00
2019-02-27T05:31:39.631Z,95.90
2019-02-27T05:34:12.719Z,96.30
2019-02-27T05:36:40.266Z,96.10
2019-02-27T05:39:29.751Z,96.20
2019-02-27T05:42:00.878Z,96.20
2019-02-27T05:44:32.848Z,96.20
2019-02-27T05:47:02.337Z,96.30
2019-02-27T05:49:31.986Z,96.00
2019-02-27T05:52:01.434Z,96.20
2019-02-27T05:54:32.365Z,96.10
2019-02-27T05:57:02.491Z,96.10
2019-02-27T05:59:31.931Z,95.90
2019-02-27T06:02:01.581Z,95.70
2019-02-27T06:04:31.040Z,95.60
2019-02-27T06:07:02.326Z,95.40
2019-02-27T06:09:31.793Z,95.20
2019-02-27T06:12:01.191Z,94.90
2019-02-27T06:14:30.603Z,94.70
2019-02-27T06:17:02.243Z,94.60
2019-02-27T06:19:34.274Z,94.40
2019-02-27T06:22:05.796Z,94.30
2019-02-27T06:24:35.045Z,94.10
2019-02-27T06:27:06.409Z,93.80
2019-02-27T06:29:38.663Z,93.80
2019-02-27T06:32:12.010Z,93.70
2019-02-27T06:34:39.427Z,93.50
2019-02-27T06:37:10.173Z,93.40
2019-02-27T06:39:40.733Z,93.50
2019-02-27T06:42:10.341Z,93.50
2019-02-27T06:44:39.891Z,93.50
2019-02-27T06:47:09.433Z,93.40
2019-02-27T06:49:38.806Z,93.30
2019-02-27T06:52:09.225Z,93.30
2019-02-27T06:54:39.305Z,93.20
2019-02-27T06:57:08.771Z,93.30
2019-02-27T06:59:38.635Z,93.20
2019-02-27T07:02:08.095Z,93.20
2019-02-27T07:04:40.492Z,93.10
2019-02-27T07:07:10.051Z,92.80
2019-02-27T07:09:39.493Z,92.70
2019-02-27T07:12:10.758Z,92.60
2019-02-27T07:14:40.287Z,92.50
2019-02-27T07:17:09.639Z,92.40
2019-02-27T07:19:39.010Z,92.40
2019-02-27T07:22:12.372Z,92.50
2019-02-27T07:24:40.157Z,92.30
2019-02-27T07:27:10.665Z,92.20
2019-02-27T07:29:40.140Z,92.00
2019-02-27T07:47:05.378Z,91.80
2019-02-27T07:52:03.807Z,90.00
2019-02-27T07:54:33.162Z,89.00
2019-02-27T07:57:03.881Z,88.40
2019-02-27T07:59:37.939Z,88.00
2019-02-27T08:02:05.254Z,87.70
2019-02-27T08:04:35.707Z,87.70
2019-02-27T08:07:05.203Z,87.70
2019-02-27T08:09:34.837Z,87.70
2019-02-27T08:12:04.438Z,87.80
2019-02-27T08:14:37.060Z,87.90
2019-02-27T08:17:17.009Z,87.50
2019-02-27T08:19:37.157Z,86.80
2019-02-27T08:22:06.767Z,88.10
2019-02-27T08:24:36.695Z,89.70
2019-02-27T08:27:07.088Z,90.10
2019-02-27T08:29:37.460Z,90.40
2019-02-27T08:32:08.264Z,90.40
2019-02-27T08:34:37.990Z,90.50
2019-02-27T08:37:08.507Z,90.50
2019-02-27T08:39:38.037Z,90.60
2019-02-27T08:42:09.012Z,90.70
2019-02-27T08:44:38.503Z,91.20
2019-02-27T08:47:10.318Z,90.80
2019-02-27T08:49:39.589Z,90.90
2019-02-27T08:52:09.006Z,90.90
2019-02-27T08:54:38.881Z,90.40
2019-02-27T08:57:08.496Z,90.40
2019-02-27T08:59:40.015Z,90.30
2019-02-27T09:02:10.110Z,90.40
2019-02-27T09:04:39.593Z,90.20
2019-02-27T09:07:10.617Z,89.70
2019-02-27T09:09:40.207Z,89.70
2019-02-27T09:12:13.218Z,89.50
2019-02-27T09:14:41.115Z,89.10
2019-02-27T09:17:10.580Z,89.30
2019-02-27T09:19:44.972Z,89.00
2019-02-27T09:22:15.098Z,89.10
2019-02-27T09:24:44.725Z,89.20
2019-02-27T09:27:15.974Z,89.60
2019-02-27T09:29:45.433Z,90.00
2019-02-27T09:32:15.904Z,89.90
2019-02-27T09:34:45.288Z,90.00
2019-02-27T09:37:16.867Z,90.10
2019-02-27T09:44:45.644Z,90.10
2019-02-27T09:47:15.480Z,88.00
2019-02-27T09:49:46.472Z,87.10
2019-02-27T09:52:16.065Z,86.80
2019-02-27T09:54:46.972Z,87.00
2019-02-27T09:57:16.869Z,86.10
2019-02-27T09:59:46.314Z,85.60
2019-02-27T10:02:15.825Z,86.20
2019-02-27T10:04:45.221Z,86.30
2019-02-27T10:07:17.117Z,86.60
2019-02-27T10:09:47.777Z,86.90
2019-02-27T10:12:17.222Z,87.10
2019-02-27T10:14:47.965Z,87.00
2019-02-27T10:17:19.045Z,87.00
2019-02-27T10:19:48.611Z,87.00
2019-02-27T10:22:20.294Z,88.30
2019-02-27T10:24:49.377Z,89.40
2019-02-27T10:27:18.816Z,89.60
2019-02-27T10:29:51.012Z,90.80
2019-02-27T10:32:20.623Z,91.60
2019-02-27T10:34:50.991Z,91.50
2019-02-27T10:37:21.221Z,91.90
2019-02-27T10:39:52.367Z,92.10
2019-02-27T10:42:21.804Z,92.10
2019-02-27T10:44:51.151Z,92.20
2019-02-27T10:47:20.766Z,92.80
2019-02-27T10:49:50.192Z,93.00
2019-02-27T10:52:24.052Z,93.30
2019-02-27T10:54:51.187Z,93.40
2019-02-27T10:57:21.970Z,93.80
2019-02-27T10:59:51.490Z,93.90
2019-02-27T11:02:20.910Z,94.00
2019-02-27T11:04:51.308Z,94.10
2019-02-27T11:07:20.866Z,94.20
2019-02-27T11:09:52.389Z,94.30
2019-02-27T11:12:21.879Z,94.30
2019-02-27T11:14:51.332Z,94.30
2019-02-27T11:17:21.295Z,94.50
2019-02-27T11:19:52.059Z,94.80
2019-02-27T11:22:21.515Z,94.90
2019-02-27T11:24:52.439Z,94.90
2019-02-27T11:27:22.041Z,94.90
2019-02-27T11:29:51.534Z,94.40
2019-02-27T11:32:23.894Z,94.20
2019-02-27T11:34:55.759Z,94.10
2019-02-27T11:37:26.417Z,93.90
2019-02-27T11:39:57.655Z,93.60
2019-02-27T11:42:29.042Z,93.70
2019-02-27T11:44:58.432Z,93.90
2019-02-27T11:47:27.887Z,94.00
2019-02-27T11:49:59.057Z,93.90
2019-02-27T11:52:30.311Z,93.80
2019-02-27T11:55:00.987Z,93.00
2019-02-27T11:57:31.223Z,91.10
2019-02-27T12:00:00.801Z,90.30
2019-02-27T12:02:36.935Z,90.60
2019-02-27T12:05:01.356Z,91.30
2019-02-27T12:07:31.456Z,91.80
2019-02-27T12:10:00.835Z,91.80
2019-02-27T12:12:33.044Z,92.20
2019-02-27T12:15:06.709Z,92.80
2019-02-27T12:17:36.536Z,92.90
2019-02-27T12:20:07.565Z,92.70
2019-02-27T12:22:37.060Z,93.40
2019-02-27T12:25:07.360Z,93.50
2019-02-27T12:27:49.202Z,93.70
2019-02-27T12:30:15.355Z,94.10
2019-02-27T12:32:45.043Z,94.50
2019-02-27T12:35:20.262Z,94.70
2019-02-27T12:37:49.856Z,95.20
2019-02-27T12:40:23.898Z,95.40
2019-02-27T12:42:51.604Z,95.10
2019-02-27T12:45:22.493Z,95.00
2019-02-27T12:47:52.115Z,95.10
2019-02-27T12:50:22.500Z,95.40
2019-02-27T12:52:52.089Z,95.40
2019-02-27T12:55:22.997Z,95.30
2019-02-27T12:58:13.461Z,95.30
2019-02-27T13:00:44.349Z,95.30
2019-02-27T13:03:14.778Z,95.50
2019-02-27T13:05:44.639Z,95.50
2019-02-27T13:08:16.314Z,95.60
2019-02-27T13:10:45.289Z,95.70
2019-02-27T13:13:14.775Z,95.90
2019-02-27T13:15:44.340Z,95.60
2019-02-27T13:18:13.777Z,95.80
2019-02-27T13:20:45.673Z,96.00
2019-02-27T13:23:15.605Z,96.10
2019-02-27T13:25:45.059Z,96.20
2019-02-27T13:28:15.676Z,96.20
2019-02-27T13:30:45.171Z,96.30
2019-02-27T13:33:15.750Z,96.30
2019-02-27T13:35:47.324Z,96.40
2019-02-27T13:38:18.388Z,96.40
2019-02-27T13:40:48.105Z,96.30
2019-02-27T13:43:17.694Z,96.20
2019-02-27T13:45:47.698Z,96.30
2019-02-27T13:48:17.710Z,96.30
2019-02-27T13:50:47.123Z,96.20
2019-02-27T13:53:16.533Z,96.20
2019-02-27T13:55:48.325Z,96.10
2019-02-27T13:58:21.553Z,96.30
2019-02-27T14:00:53.613Z,96.10
2019-02-27T14:03:22.201Z,96.00
2019-02-27T14:05:51.758Z,95.90
2019-02-27T14:08:21.266Z,95.90
2019-02-27T14:10:53.382Z,95.80
2019-02-27T14:13:24.116Z,95.70
2019-02-27T14:15:53.578Z,95.70
2019-02-27T14:18:22.976Z,95.40
2019-02-27T14:20:53.555Z,95.00
2019-02-27T14:23:24.589Z,95.10
2019-02-27T14:25:53.957Z,94.90
2019-02-27T14:28:23.367Z,94.60
2019-02-27T14:30:52.772Z,94.60
2019-02-27T14:33:22.232Z,94.40
2019-02-27T14:35:52.929Z,94.20
2019-02-27T14:38:23.099Z,94.10
2019-02-27T14:40:53.777Z,94.10
2019-02-27T14:43:27.155Z,93.70
2019-02-27T14:45:55.315Z,93.60
2019-02-27T14:48:25.932Z,93.60
2019-02-27T14:50:55.581Z,93.40
2019-02-27T14:53:24.986Z,93.20
2019-02-27T14:55:54.523Z,93.30
2019-02-27T14:58:24.965Z,92.90
2019-02-27T15:00:55.700Z,92.80
2019-02-27T15:03:29.186Z,92.90
2019-02-27T15:05:57.726Z,92.80
2019-02-27T15:08:27.342Z,92.50
2019-02-27T15:10:56.816Z,92.50
2019-02-27T15:13:28.350Z,92.70
2019-02-27T15:15:57.747Z,92.20
2019-02-27T15:18:27.259Z,92.20
2019-02-27T15:20:56.769Z,92.20
2019-02-27T15:23:28.197Z,92.00
2019-02-27T15:25:57.368Z,92.30
2019-02-27T15:28:32.993Z,92.20
2019-02-27T15:30:59.257Z,92.00
2019-02-27T15:33:29.756Z,92.20
2019-02-27T15:35:59.269Z,92.20
2019-02-27T15:38:28.728Z,92.20
2019-02-27T15:41:02.110Z,92.20
2019-02-27T15:43:30.195Z,92.20
2019-02-27T15:45:59.713Z,92.10
2019-02-27T15:48:30.870Z,92.20
2019-02-27T15:51:00.390Z,92.10
2019-02-27T15:53:30.004Z,92.10
2019-02-27T15:55:59.388Z,92.10
2019-02-27T15:58:30.064Z,92.00
2019-02-27T16:00:59.833Z,92.10
2019-02-27T16:03:29.367Z,92.20
2019-02-27T16:05:58.757Z,92.40
2019-02-27T16:08:28.297Z,92.30
2019-02-27T16:10:57.745Z,92.40
2019-02-27T16:13:27.172Z,92.40
2019-02-27T16:15:56.541Z,92.50
2019-02-27T16:18:25.930Z,92.50
2019-02-27T16:20:55.498Z,92.50
2019-02-27T16:23:24.914Z,92.50
2019-02-27T16:25:56.603Z,92.60
2019-02-27T16:28:26.206Z,92.70
2019-02-27T16:30:55.605Z,92.70
2019-02-27T16:33:25.026Z,92.80
2019-02-27T16:35:54.561Z,92.80
2019-02-27T16:38:24.040Z,92.90
2019-02-27T16:40:53.643Z,92.90
2019-02-27T16:43:35.312Z,93.00
2019-02-27T16:46:07.719Z,93.00
2019-02-27T16:48:36.004Z,93.00
2019-02-27T16:51:24.424Z,93.00
2019-02-27T16:53:54.223Z,93.10
2019-02-27T16:56:23.675Z,93.20
2019-02-27T16:58:55.172Z,93.20
2019-02-27T17:01:29.556Z,93.30
2019-02-27T17:04:00.377Z,93.40
2019-02-27T17:06:28.729Z,93.40
2019-02-27T17:08:58.211Z,93.50
2019-02-27T17:11:29.439Z,93.50
2019-02-27T17:13:59.029Z,93.50
2019-02-27T17:16:33.210Z,93.60
2019-02-27T17:19:03.772Z,93.60
2019-02-27T17:21:33.312Z,93.80
2019-02-27T17:24:02.949Z,93.70
2019-02-27T17:26:35.277Z,93.70
2019-02-27T17:29:05.047Z,93.90
2019-02-27T17:31:35.581Z,93.90
2019-02-27T17:34:08.250Z,94.50
2019-02-27T17:36:38.013Z,94.40
2019-02-27T17:39:08.253Z,94.50
2019-02-27T17:41:37.838Z,94.50
2019-02-27T17:44:09.080Z,94.60
2019-02-27T17:46:39.876Z,95.20
2019-02-27T17:49:09.530Z,95.60
2019-02-27T17:51:40.458Z,95.70
2019-02-27T17:54:10.303Z,95.80
2019-02-27T17:56:40.856Z,95.90
2019-02-27T17:59:14.535Z,95.70
2019-02-27T18:01:44.125Z,95.70
2019-02-27T18:04:14.588Z,95.80
2019-02-27T18:06:46.119Z,95.90
2019-02-27T18:09:17.492Z,95.80
2019-02-27T18:11:49.503Z,95.90
2019-02-27T18:14:18.083Z,95.80
2019-02-27T18:16:47.543Z,95.80
2019-02-27T18:19:17.275Z,95.70
2019-02-27T18:21:46.981Z,95.70
2019-02-27T18:24:16.731Z,95.70
2019-02-27T18:26:50.015Z,95.70
2019-02-27T18:29:18.348Z,95.60
2019-02-27T18:31:49.000Z,95.60
2019-02-27T18:34:21.579Z,95.60
2019-02-27T18:36:51.343Z,95.70
2019-02-27T18:39:20.926Z,95.70
2019-02-27T18:41:50.461Z,95.80
2019-02-27T18:44:20.067Z,95.70
2019-02-27T18:46:49.531Z,95.90
2019-02-27T18:49:19.693Z,96.00
2019-02-27T18:51:49.451Z,95.90
2019-02-27T18:54:21.800Z,96.00
2019-02-27T18:56:50.136Z,96.10
2019-02-27T18:59:20.636Z,96.20
2019-02-27T19:01:50.345Z,96.20
2019-02-27T19:04:19.978Z,96.20
2019-02-27T19:06:49.755Z,96.50
2019-02-27T19:09:19.462Z,96.40
2019-02-27T19:11:50.820Z,96.50
2019-02-27T19:14:23.017Z,96.50
2019-02-27T19:16:54.935Z,96.50
2019-02-27T19:19:24.450Z,96.50
2019-02-27T19:21:54.089Z,96.70
2019-02-27T19:24:27.459Z,96.80
2019-02-27T19:26:54.915Z,96.80
2019-02-27T19:29:25.752Z,96.90
2019-02-27T19:31:55.551Z,96.90
2019-02-27T19:34:25.523Z,96.90
2019-02-27T19:36:55.341Z,96.90
2019-02-27T19:39:25.124Z,97.10
2019-02-27T19:41:55.109Z,97.00
2019-02-27T19:44:28.590Z,97.00
2019-02-27T19:46:56.850Z,97.10
2019-02-27T19:49:26.861Z,97.40
2019-02-27T19:51:58.016Z,97.20
2019-02-27T19:54:28.472Z,97.30
2019-02-27T19:56:58.559Z,97.30
2019-02-27T19:59:29.083Z,97.40
2019-02-27T20:01:59.560Z,97.30
2019-02-27T20:04:31.640Z,97.30
2019-02-27T20:07:02.628Z,97.30
2019-02-27T20:09:33.099Z,97.40
2019-02-27T20:12:03.586Z,97.40
2019-02-27T20:14:36.676Z,97.40
2019-02-27T20:17:07.763Z,97.40
2019-02-27T20:19:38.121Z,97.30
2019-02-27T20:22:08.390Z,97.30
2019-02-27T20:24:40.126Z,97.40
2019-02-27T20:27:10.588Z,97.30
2019-02-27T20:29:40.991Z,97.20
2019-02-27T20:32:11.244Z,97.30
2019-02-27T20:34:42.644Z,97.60
2019-02-27T20:37:13.593Z,97.20
2019-02-27T20:39:43.824Z,97.20
2019-02-27T20:42:15.131Z,97.30
2019-02-27T20:44:45.406Z,97.00
2019-02-27T20:47:34.227Z,97.20
2019-02-27T20:50:04.145Z,97.10
2019-02-27T20:52:35.715Z,97.20
2019-02-27T20:55:06.024Z,97.10
2019-02-27T20:57:36.154Z,97.10
2019-02-27T21:00:07.131Z,97.10
2019-02-27T21:02:37.801Z,97.10
2019-02-27T21:05:09.506Z,97.10
2019-02-27T21:07:39.961Z,97.20
2019-02-27T21:10:31.101Z,97.10
2019-02-27T21:13:00.690Z,97.00
2019-02-27T21:15:32.538Z,97.00
2019-02-27T21:18:02.062Z,97.00
2019-02-27T21:20:33.123Z,97.10
2019-02-27T21:23:02.988Z,97.00
2019-02-27T21:25:32.659Z,97.00
2019-02-27T21:28:06.634Z,96.90
2019-02-27T21:30:33.733Z,97.00
2019-02-27T21:33:04.313Z,97.00
2019-02-27T21:35:35.273Z,96.90
2019-02-27T21:38:05.325Z,96.90
2019-02-27T21:40:36.143Z,96.90
2019-02-27T21:43:06.321Z,96.90
2019-02-27T21:45:37.433Z,96.90
2019-02-27T21:48:26.784Z,96.90
2019-02-27T21:50:57.284Z,96.90
2019-02-27T21:53:29.587Z,97.00
2019-02-27T21:55:59.331Z,97.00
2019-02-27T21:58:31.862Z,97.00
2019-02-27T22:01:01.164Z,97.00
2019-02-27T22:03:30.562Z,96.90
2019-02-27T22:05:59.954Z,97.00
2019-02-27T22:08:50.869Z,97.00
2019-02-27T22:11:20.429Z,96.90
2019-02-27T22:13:49.857Z,96.90
2019-02-27T22:16:19.963Z,96.90
2019-02-27T22:18:49.445Z,96.90
2019-02-27T22:21:19.020Z,96.80
2019-02-27T22:23:48.490Z,96.80
2019-02-27T22:26:19.012Z,96.80
2019-02-27T22:28:51.169Z,96.80
2019-02-27T22:31:19.539Z,96.70
2019-02-27T22:33:49.133Z,96.70
2019-02-27T22:36:18.536Z,96.70
2019-02-27T22:38:48.325Z,96.80
2019-02-27T22:41:17.971Z,96.80
2019-02-27T22:43:48.624Z,96.70
2019-02-27T22:46:18.019Z,96.80
2019-02-27T22:48:48.453Z,96.80
2019-02-27T22:51:17.974Z,96.90
2019-02-27T22:53:47.417Z,96.80
2019-02-27T22:56:17.460Z,96.80
2019-02-27T22:58:49.404Z,96.80
2019-02-27T23:01:25.193Z,96.70
2019-02-27T23:04:07.758Z,96.70
2019-02-27T23:06:37.289Z,96.60
2019-02-27T23:09:11.041Z,96.60
2019-02-27T23:11:40.729Z,96.50
2019-02-27T23:14:10.488Z,96.50
2019-02-27T23:16:39.859Z,96.40
2019-02-27T23:19:11.997Z,96.40
2019-02-27T23:21:40.740Z,96.30
2019-02-27T23:24:11.316Z,96.20
2019-02-27T23:26:41.871Z,96.50
2019-02-27T23:29:11.284Z,96.00
2019-02-27T23:31:40.648Z,95.80
2019-02-27T23:34:10.065Z,95.80
2019-02-27T23:36:40.582Z,95.70
2019-02-27T23:39:13.345Z,95.70
2019-02-27T23:41:43.850Z,95.80
2019-02-27T23:44:14.336Z,95.80
2019-02-27T23:46:49.728Z,95.80
2019-02-27T23:49:16.213Z,95.80
2019-02-27T23:51:47.763Z,95.70
2019-02-27T23:54:17.264Z,95.40
2019-02-27T23:56:51.768Z,95.70
2019-02-27T23:59:20.053Z,95.60
